A bike ride from Lowick, about 15 miles.

This is based on a route published by biketreks, but I modified it very slightly.
(If you follow the link to the biketreks site, save a copy of that big .jpeg map there)
I ought to have done this route before the bracken got too high, or waited until autumn when it will have died. There’s a short bit of the route where I found the trail very hard to follow on the ground, and I was surrounded by neck-high bracken. Having the route programmed in to my GPS unit was essential there and then.
The route uses a number of trails which I’ve used on and off ever since I discovered mountain biking, as well as some trails I only learned today.

This is the GPX file of my ride, if you copy and paste it in to a new file and save it as “somename.gpx” it should work.

—————————————————————————————-
<?xml version="1.0" encoding="UTF-8" standalone="yes"?>
<gpx version="1.1" creator="GPS Utility 4.20 – http://www.gpsu.co.uk&#34;
xmlns="http://www.topografix.com/GPX/1/1&#34;
xmlns:xsi="http://www.w3.org/2001/XMLSchema-instance&#34;
xsi:schemaLocation="http://www.topografix.com/GPX/1/1 http://www.topografix.com/GPX/1/1/gpx.xsd"&#62;

<trk>
<trkseg>
<trkpt lat="54.264950" lon="-3.091151"><ele>67</ele><time>2009-07-25T10:30:34Z</time></trkpt>
<trkpt lat="54.264550" lon="-3.094596"><ele>57</ele><time>2009-07-25T10:40:41Z</time></trkpt>
<trkpt lat="54.263563" lon="-3.096396"><ele>60</ele><time>2009-07-25T10:41:21Z</time></trkpt>
<trkpt lat="54.262748" lon="-3.097081"><ele>68</ele><time>2009-07-25T10:41:45Z</time></trkpt>
<trkpt lat="54.266067" lon="-3.101760"><ele>70</ele><time>2009-07-25T10:44:01Z</time></trkpt>
<trkpt lat="54.266604" lon="-3.103049"><ele>69</ele><time>2009-07-25T10:44:49Z</time></trkpt>
<trkpt lat="54.266587" lon="-3.105843"><ele>77</ele><time>2009-07-25T10:45:28Z</time></trkpt>
<trkpt lat="54.266448" lon="-3.107298"><ele>78</ele><time>2009-07-25T10:45:47Z</time></trkpt>
<trkpt lat="54.266554" lon="-3.108468"><ele>83</ele><time>2009-07-25T10:46:30Z</time></trkpt>
<trkpt lat="54.266571" lon="-3.109589"><ele>85</ele><time>2009-07-25T10:47:19Z</time></trkpt>
<trkpt lat="54.266666" lon="-3.110974"><ele>96</ele><time>2009-07-25T10:48:02Z</time></trkpt>
<trkpt lat="54.267068" lon="-3.112151"><ele>110</ele><time>2009-07-25T10:48:43Z</time></trkpt>
<trkpt lat="54.267312" lon="-3.112972"><ele>116</ele><time>2009-07-25T10:49:44Z</time></trkpt>
<trkpt lat="54.267586" lon="-3.115421"><ele>126</ele><time>2009-07-25T10:50:38Z</time></trkpt>
<trkpt lat="54.268151" lon="-3.119444"><ele>126</ele><time>2009-07-25T10:53:46Z</time></trkpt>
<trkpt lat="54.268363" lon="-3.122720"><ele>126</ele><time>2009-07-25T10:54:20Z</time></trkpt>
<trkpt lat="54.268866" lon="-3.124776"><ele>139</ele><time>2009-07-25T10:55:05Z</time></trkpt>
<trkpt lat="54.270783" lon="-3.126395"><ele>144</ele><time>2009-07-25T10:59:48Z</time></trkpt>
<trkpt lat="54.271400" lon="-3.127655"><ele>155</ele><time>2009-07-25T11:00:24Z</time></trkpt>
<trkpt lat="54.272849" lon="-3.128386"><ele>157</ele><time>2009-07-25T11:02:07Z</time></trkpt>
<trkpt lat="54.273616" lon="-3.130941"><ele>138</ele><time>2009-07-25T11:02:30Z</time></trkpt>
<trkpt lat="54.273332" lon="-3.132515"><ele>130</ele><time>2009-07-25T11:02:53Z</time></trkpt>
<trkpt lat="54.273217" lon="-3.137088"><ele>131</ele><time>2009-07-25T11:03:39Z</time></trkpt>
<trkpt lat="54.273837" lon="-3.138994"><ele>131</ele><time>2009-07-25T11:04:06Z</time></trkpt>
<trkpt lat="54.274180" lon="-3.140724"><ele>135</ele><time>2009-07-25T11:04:30Z</time></trkpt>
<trkpt lat="54.274837" lon="-3.141633"><ele>140</ele><time>2009-07-25T11:04:57Z</time></trkpt>
<trkpt lat="54.275418" lon="-3.139161"><ele>137</ele><time>2009-07-25T11:06:37Z</time></trkpt>
<trkpt lat="54.276554" lon="-3.137764"><ele>138</ele><time>2009-07-25T11:06:55Z</time></trkpt>
<trkpt lat="54.278003" lon="-3.136590"><ele>136</ele><time>2009-07-25T11:08:30Z</time></trkpt>
<trkpt lat="54.279498" lon="-3.136278"><ele>147</ele><time>2009-07-25T11:09:55Z</time></trkpt>
<trkpt lat="54.280871" lon="-3.135640"><ele>151</ele><time>2009-07-25T11:10:29Z</time></trkpt>
<trkpt lat="54.281320" lon="-3.135637"><ele>152</ele><time>2009-07-25T11:11:01Z</time></trkpt>
<trkpt lat="54.282135" lon="-3.134016"><ele>157</ele><time>2009-07-25T11:11:49Z</time></trkpt>
<trkpt lat="54.282248" lon="-3.132560"><ele>160</ele><time>2009-07-25T11:12:08Z</time></trkpt>
<trkpt lat="54.282483" lon="-3.131414"><ele>166</ele><time>2009-07-25T11:12:38Z</time></trkpt>
<trkpt lat="54.282981" lon="-3.130061"><ele>171</ele><time>2009-07-25T11:13:12Z</time></trkpt>
<trkpt lat="54.283783" lon="-3.128900"><ele>175</ele><time>2009-07-25T11:13:44Z</time></trkpt>
<trkpt lat="54.284596" lon="-3.128430"><ele>176</ele><time>2009-07-25T11:14:10Z</time></trkpt>
<trkpt lat="54.284882" lon="-3.126733"><ele>179</ele><time>2009-07-25T11:14:36Z</time></trkpt>
<trkpt lat="54.284737" lon="-3.123995"><ele>168</ele><time>2009-07-25T11:15:08Z</time></trkpt>
<trkpt lat="54.284337" lon="-3.122479"><ele>160</ele><time>2009-07-25T11:17:29Z</time></trkpt>
<trkpt lat="54.284265" lon="-3.121540"><ele>160</ele><time>2009-07-25T11:19:01Z</time></trkpt>
<trkpt lat="54.284500" lon="-3.119472"><ele>178</ele><time>2009-07-25T11:20:11Z</time></trkpt>
<trkpt lat="54.285486" lon="-3.118823"><ele>180</ele><time>2009-07-25T11:21:23Z</time></trkpt>
<trkpt lat="54.286767" lon="-3.117321"><ele>173</ele><time>2009-07-25T11:21:57Z</time></trkpt>
<trkpt lat="54.288120" lon="-3.116836"><ele>162</ele><time>2009-07-25T11:22:34Z</time></trkpt>
<trkpt lat="54.289004" lon="-3.116491"><ele>160</ele><time>2009-07-25T11:22:58Z</time></trkpt>
<trkpt lat="54.290381" lon="-3.116221"><ele>145</ele><time>2009-07-25T11:23:20Z</time></trkpt>
<trkpt lat="54.291404" lon="-3.116448"><ele>125</ele><time>2009-07-25T11:28:15Z</time></trkpt>
<trkpt lat="54.292551" lon="-3.115834"><ele>127</ele><time>2009-07-25T11:28:57Z</time></trkpt>
<trkpt lat="54.292952" lon="-3.115261"><ele>119</ele><time>2009-07-25T11:30:38Z</time></trkpt>
<trkpt lat="54.294002" lon="-3.114398"><ele>124</ele><time>2009-07-25T11:34:23Z</time></trkpt>
<trkpt lat="54.294382" lon="-3.113179"><ele>129</ele><time>2009-07-25T11:35:26Z</time></trkpt>
<trkpt lat="54.294967" lon="-3.112120"><ele>123</ele><time>2009-07-25T11:35:52Z</time></trkpt>
<trkpt lat="54.295254" lon="-3.111221"><ele>121</ele><time>2009-07-25T11:37:26Z</time></trkpt>
<trkpt lat="54.295853" lon="-3.110622"><ele>124</ele><time>2009-07-25T11:42:52Z</time></trkpt>
<trkpt lat="54.296534" lon="-3.110794"><ele>137</ele><time>2009-07-25T11:43:39Z</time></trkpt>
<trkpt lat="54.297296" lon="-3.111045"><ele>139</ele><time>2009-07-25T11:46:04Z</time></trkpt>
<trkpt lat="54.297648" lon="-3.109948"><ele>152</ele><time>2009-07-25T11:46:58Z</time></trkpt>
<trkpt lat="54.297836" lon="-3.108955"><ele>164</ele><time>2009-07-25T11:48:09Z</time></trkpt>
<trkpt lat="54.298386" lon="-3.107848"><ele>171</ele><time>2009-07-25T11:49:28Z</time></trkpt>
<trkpt lat="54.298818" lon="-3.106814"><ele>168</ele><time>2009-07-25T11:50:02Z</time></trkpt>
<trkpt lat="54.299264" lon="-3.106165"><ele>154</ele><time>2009-07-25T11:53:20Z</time></trkpt>
<trkpt lat="54.299552" lon="-3.105205"><ele>140</ele><time>2009-07-25T11:54:40Z</time></trkpt>
<trkpt lat="54.300204" lon="-3.105607"><ele>146</ele><time>2009-07-25T11:56:13Z</time></trkpt>
<trkpt lat="54.300935" lon="-3.106318"><ele>160</ele><time>2009-07-25T11:58:47Z</time></trkpt>
<trkpt lat="54.301435" lon="-3.106654"><ele>157</ele><time>2009-07-25T11:59:30Z</time></trkpt>
<trkpt lat="54.301850" lon="-3.106419"><ele>156</ele><time>2009-07-25T12:00:35Z</time></trkpt>
<trkpt lat="54.302334" lon="-3.106586"><ele>156</ele><time>2009-07-25T12:02:24Z</time></trkpt>
<trkpt lat="54.302829" lon="-3.106538"><ele>155</ele><time>2009-07-25T12:04:26Z</time></trkpt>
<trkpt lat="54.303313" lon="-3.105705"><ele>159</ele><time>2009-07-25T12:07:38Z</time></trkpt>
<trkpt lat="54.304812" lon="-3.104885"><ele>167</ele><time>2009-07-25T12:09:07Z</time></trkpt>
<trkpt lat="54.305846" lon="-3.103944"><ele>155</ele><time>2009-07-25T12:09:47Z</time></trkpt>
<trkpt lat="54.306534" lon="-3.103363"><ele>139</ele><time>2009-07-25T12:10:45Z</time></trkpt>
<trkpt lat="54.306950" lon="-3.103082"><ele>126</ele><time>2009-07-25T12:11:17Z</time></trkpt>
<trkpt lat="54.307546" lon="-3.102822"><ele>110</ele><time>2009-07-25T12:16:37Z</time></trkpt>
<trkpt lat="54.308081" lon="-3.102221"><ele>104</ele><time>2009-07-25T12:18:19Z</time></trkpt>
<trkpt lat="54.308635" lon="-3.101606"><ele>99</ele><time>2009-07-25T12:19:10Z</time></trkpt>
<trkpt lat="54.308966" lon="-3.100877"><ele>95</ele><time>2009-07-25T12:20:51Z</time></trkpt>
<trkpt lat="54.309036" lon="-3.100095"><ele>90</ele><time>2009-07-25T12:23:18Z</time></trkpt>
<trkpt lat="54.309264" lon="-3.099686"><ele>91</ele><time>2009-07-25T12:24:58Z</time></trkpt>
<trkpt lat="54.309567" lon="-3.099018"><ele>79</ele><time>2009-07-25T12:31:00Z</time></trkpt>
<trkpt lat="54.310386" lon="-3.098886"><ele>74</ele><time>2009-07-25T12:32:31Z</time></trkpt>
<trkpt lat="54.311119" lon="-3.099336"><ele>79</ele><time>2009-07-25T12:33:07Z</time></trkpt>
<trkpt lat="54.311954" lon="-3.099373"><ele>85</ele><time>2009-07-25T12:33:44Z</time></trkpt>
<trkpt lat="54.312452" lon="-3.100002"><ele>96</ele><time>2009-07-25T12:34:24Z</time></trkpt>
<trkpt lat="54.313212" lon="-3.100406"><ele>98</ele><time>2009-07-25T12:34:56Z</time></trkpt>
<trkpt lat="54.313949" lon="-3.103346"><ele>102</ele><time>2009-07-25T12:36:50Z</time></trkpt>
<trkpt lat="54.313666" lon="-3.104799"><ele>110</ele><time>2009-07-25T12:38:07Z</time></trkpt>
<trkpt lat="54.313504" lon="-3.105794"><ele>117</ele><time>2009-07-25T12:39:26Z</time></trkpt>
<trkpt lat="54.313351" lon="-3.106851"><ele>120</ele><time>2009-07-25T12:40:27Z</time></trkpt>
<trkpt lat="54.312988" lon="-3.108255"><ele>121</ele><time>2009-07-25T12:41:02Z</time></trkpt>
<trkpt lat="54.312950" lon="-3.109376"><ele>121</ele><time>2009-07-25T12:41:29Z</time></trkpt>
<trkpt lat="54.312571" lon="-3.110534"><ele>126</ele><time>2009-07-25T12:42:46Z</time></trkpt>
<trkpt lat="54.312153" lon="-3.112014"><ele>140</ele><time>2009-07-25T12:46:16Z</time></trkpt>
<trkpt lat="54.311784" lon="-3.113049"><ele>149</ele><time>2009-07-25T12:47:19Z</time></trkpt>
<trkpt lat="54.311062" lon="-3.113337"><ele>163</ele><time>2009-07-25T12:48:58Z</time></trkpt>
<trkpt lat="54.310586" lon="-3.113309"><ele>165</ele><time>2009-07-25T12:50:22Z</time></trkpt>
<trkpt lat="54.310153" lon="-3.113451"><ele>168</ele><time>2009-07-25T12:51:23Z</time></trkpt>
<trkpt lat="54.308847" lon="-3.113846"><ele>169</ele><time>2009-07-25T12:54:12Z</time></trkpt>
<trkpt lat="54.308035" lon="-3.114101"><ele>169</ele><time>2009-07-25T12:55:24Z</time></trkpt>
<trkpt lat="54.307486" lon="-3.114240"><ele>171</ele><time>2009-07-25T12:56:20Z</time></trkpt>
<trkpt lat="54.306513" lon="-3.114460"><ele>176</ele><time>2009-07-25T12:57:05Z</time></trkpt>
<trkpt lat="54.306050" lon="-3.114939"><ele>186</ele><time>2009-07-25T12:58:23Z</time></trkpt>
<trkpt lat="54.305434" lon="-3.115506"><ele>190</ele><time>2009-07-25T12:59:12Z</time></trkpt>
<trkpt lat="54.304450" lon="-3.115895"><ele>183</ele><time>2009-07-25T12:59:47Z</time></trkpt>
<trkpt lat="54.303798" lon="-3.116476"><ele>174</ele><time>2009-07-25T13:02:59Z</time></trkpt>
<trkpt lat="54.303118" lon="-3.117134"><ele>174</ele><time>2009-07-25T13:04:35Z</time></trkpt>
<trkpt lat="54.302196" lon="-3.117693"><ele>175</ele><time>2009-07-25T13:05:29Z</time></trkpt>
<trkpt lat="54.301565" lon="-3.117907"><ele>169</ele><time>2009-07-25T13:06:17Z</time></trkpt>
<trkpt lat="54.301032" lon="-3.118184"><ele>168</ele><time>2009-07-25T13:06:40Z</time></trkpt>
<trkpt lat="54.300588" lon="-3.118602"><ele>171</ele><time>2009-07-25T13:08:11Z</time></trkpt>
<trkpt lat="54.299838" lon="-3.119028"><ele>184</ele><time>2009-07-25T13:11:38Z</time></trkpt>
<trkpt lat="54.299148" lon="-3.119685"><ele>199</ele><time>2009-07-25T13:13:31Z</time></trkpt>
<trkpt lat="54.298515" lon="-3.120114"><ele>208</ele><time>2009-07-25T13:14:25Z</time></trkpt>
<trkpt lat="54.297517" lon="-3.121101"><ele>204</ele><time>2009-07-25T13:16:09Z</time></trkpt>
<trkpt lat="54.297620" lon="-3.123593"><ele>196</ele><time>2009-07-25T13:16:43Z</time></trkpt>
<trkpt lat="54.297049" lon="-3.126020"><ele>177</ele><time>2009-07-25T13:17:11Z</time></trkpt>
<trkpt lat="54.296721" lon="-3.127487"><ele>164</ele><time>2009-07-25T13:17:38Z</time></trkpt>
<trkpt lat="54.296479" lon="-3.128371"><ele>160</ele><time>2009-07-25T13:18:35Z</time></trkpt>
<trkpt lat="54.296031" lon="-3.129127"><ele>165</ele><time>2009-07-25T13:20:02Z</time></trkpt>
<trkpt lat="54.296483" lon="-3.130799"><ele>153</ele><time>2009-07-25T13:22:04Z</time></trkpt>
<trkpt lat="54.297019" lon="-3.131121"><ele>147</ele><time>2009-07-25T13:22:45Z</time></trkpt>
<trkpt lat="54.297219" lon="-3.132878"><ele>134</ele><time>2009-07-25T13:23:18Z</time></trkpt>
<trkpt lat="54.297053" lon="-3.134211"><ele>122</ele><time>2009-07-25T13:23:37Z</time></trkpt>
<trkpt lat="54.297181" lon="-3.135874"><ele>111</ele><time>2009-07-25T13:23:56Z</time></trkpt>
<trkpt lat="54.297068" lon="-3.138360"><ele>96</ele><time>2009-07-25T13:24:25Z</time></trkpt>
<trkpt lat="54.297062" lon="-3.139927"><ele>83</ele><time>2009-07-25T13:24:44Z</time></trkpt>
<trkpt lat="54.296788" lon="-3.141410"><ele>71</ele><time>2009-07-25T13:25:07Z</time></trkpt>
<trkpt lat="54.296533" lon="-3.142678"><ele>61</ele><time>2009-07-25T13:25:25Z</time></trkpt>
<trkpt lat="54.296201" lon="-3.144482"><ele>50</ele><time>2009-07-25T13:35:11Z</time></trkpt>
<trkpt lat="54.295135" lon="-3.145037"><ele>61</ele><time>2009-07-25T13:36:16Z</time></trkpt>
<trkpt lat="54.294136" lon="-3.145255"><ele>77</ele><time>2009-07-25T13:38:03Z</time></trkpt>
<trkpt lat="54.292947" lon="-3.145452"><ele>78</ele><time>2009-07-25T13:38:54Z</time></trkpt>
<trkpt lat="54.292179" lon="-3.145938"><ele>76</ele><time>2009-07-25T13:39:20Z</time></trkpt>
<trkpt lat="54.290633" lon="-3.147769"><ele>67</ele><time>2009-07-25T13:39:54Z</time></trkpt>
<trkpt lat="54.289919" lon="-3.149224"><ele>63</ele><time>2009-07-25T13:40:15Z</time></trkpt>
<trkpt lat="54.289271" lon="-3.151188"><ele>53</ele><time>2009-07-25T13:40:40Z</time></trkpt>
<trkpt lat="54.288382" lon="-3.153867"><ele>40</ele><time>2009-07-25T13:41:06Z</time></trkpt>
<trkpt lat="54.287904" lon="-3.155037"><ele>36</ele><time>2009-07-25T13:43:29Z</time></trkpt>
<trkpt lat="54.287266" lon="-3.154082"><ele>47</ele><time>2009-07-25T13:44:12Z</time></trkpt>
<trkpt lat="54.286466" lon="-3.153076"><ele>55</ele><time>2009-07-25T13:44:54Z</time></trkpt>
<trkpt lat="54.285899" lon="-3.152262"><ele>59</ele><time>2009-07-25T13:45:25Z</time></trkpt>
<trkpt lat="54.285103" lon="-3.151809"><ele>57</ele><time>2009-07-25T13:45:57Z</time></trkpt>
<trkpt lat="54.284831" lon="-3.149313"><ele>63</ele><time>2009-07-25T13:47:02Z</time></trkpt>
<trkpt lat="54.284687" lon="-3.148311"><ele>69</ele><time>2009-07-25T13:47:27Z</time></trkpt>
<trkpt lat="54.284062" lon="-3.147879"><ele>70</ele><time>2009-07-25T13:49:20Z</time></trkpt>
<trkpt lat="54.283767" lon="-3.148638"><ele>67</ele><time>2009-07-25T13:53:10Z</time></trkpt>
<trkpt lat="54.283981" lon="-3.147938"><ele>70</ele><time>2009-07-25T13:54:01Z</time></trkpt>
<trkpt lat="54.284647" lon="-3.147833"><ele>70</ele><time>2009-07-25T13:54:36Z</time></trkpt>
<trkpt lat="54.285031" lon="-3.146231"><ele>84</ele><time>2009-07-25T13:55:54Z</time></trkpt>
<trkpt lat="54.284119" lon="-3.145730"><ele>96</ele><time>2009-07-25T13:56:54Z</time></trkpt>
<trkpt lat="54.283346" lon="-3.145662"><ele>108</ele><time>2009-07-25T13:57:46Z</time></trkpt>
<trkpt lat="54.282481" lon="-3.145868"><ele>120</ele><time>2009-07-25T13:58:51Z</time></trkpt>
<trkpt lat="54.281712" lon="-3.143589"><ele>139</ele><time>2009-07-25T14:01:09Z</time></trkpt>
<trkpt lat="54.281166" lon="-3.142376"><ele>149</ele><time>2009-07-25T14:02:21Z</time></trkpt>
<trkpt lat="54.281431" lon="-3.141047"><ele>150</ele><time>2009-07-25T14:02:56Z</time></trkpt>
<trkpt lat="54.281848" lon="-3.139707"><ele>145</ele><time>2009-07-25T14:03:27Z</time></trkpt>
<trkpt lat="54.282119" lon="-3.137594"><ele>150</ele><time>2009-07-25T14:04:29Z</time></trkpt>
<trkpt lat="54.282034" lon="-3.135165"><ele>148</ele><time>2009-07-25T14:04:59Z</time></trkpt>
<trkpt lat="54.282246" lon="-3.132759"><ele>150</ele><time>2009-07-25T14:05:28Z</time></trkpt>
<trkpt lat="54.282580" lon="-3.131678"><ele>157</ele><time>2009-07-25T14:06:05Z</time></trkpt>
<trkpt lat="54.282798" lon="-3.130470"><ele>159</ele><time>2009-07-25T14:06:35Z</time></trkpt>
<trkpt lat="54.283384" lon="-3.129319"><ele>161</ele><time>2009-07-25T14:07:01Z</time></trkpt>
<trkpt lat="54.284046" lon="-3.128600"><ele>162</ele><time>2009-07-25T14:07:23Z</time></trkpt>
<trkpt lat="54.284736" lon="-3.127912"><ele>164</ele><time>2009-07-25T14:07:47Z</time></trkpt>
<trkpt lat="54.284882" lon="-3.126733"><ele>167</ele><time>2009-07-25T14:08:12Z</time></trkpt>
<trkpt lat="54.284754" lon="-3.124087"><ele>156</ele><time>2009-07-25T14:08:45Z</time></trkpt>
<trkpt lat="54.284329" lon="-3.122401"><ele>148</ele><time>2009-07-25T14:09:01Z</time></trkpt>
<trkpt lat="54.283885" lon="-3.120869"><ele>145</ele><time>2009-07-25T14:10:22Z</time></trkpt>
<trkpt lat="54.282517" lon="-3.120033"><ele>123</ele><time>2009-07-25T14:10:50Z</time></trkpt>
<trkpt lat="54.281318" lon="-3.120523"><ele>113</ele><time>2009-07-25T14:12:45Z</time></trkpt>
<trkpt lat="54.280230" lon="-3.119571"><ele>115</ele><time>2009-07-25T14:13:17Z</time></trkpt>
<trkpt lat="54.279096" lon="-3.120662"><ele>126</ele><time>2009-07-25T14:15:07Z</time></trkpt>
<trkpt lat="54.278217" lon="-3.121467"><ele>132</ele><time>2009-07-25T14:16:03Z</time></trkpt>
<trkpt lat="54.276700" lon="-3.120320"><ele>123</ele><time>2009-07-25T14:16:43Z</time></trkpt>
<trkpt lat="54.276364" lon="-3.118714"><ele>121</ele><time>2009-07-25T14:17:02Z</time></trkpt>
<trkpt lat="54.276098" lon="-3.117355"><ele>118</ele><time>2009-07-25T14:17:37Z</time></trkpt>
<trkpt lat="54.275533" lon="-3.117202"><ele>111</ele><time>2009-07-25T14:19:59Z</time></trkpt>
<trkpt lat="54.274529" lon="-3.113043"><ele>88</ele><time>2009-07-25T14:20:29Z</time></trkpt>
<trkpt lat="54.273601" lon="-3.111283"><ele>99</ele><time>2009-07-25T14:21:04Z</time></trkpt>
<trkpt lat="54.272165" lon="-3.110154"><ele>91</ele><time>2009-07-25T14:21:34Z</time></trkpt>
<trkpt lat="54.270468" lon="-3.107989"><ele>82</ele><time>2009-07-25T14:22:03Z</time></trkpt>
<trkpt lat="54.269363" lon="-3.104981"><ele>75</ele><time>2009-07-25T14:22:33Z</time></trkpt>
<trkpt lat="54.266696" lon="-3.102760"><ele>80</ele><time>2009-07-25T14:23:31Z</time></trkpt>
<trkpt lat="54.263912" lon="-3.099553"><ele>73</ele><time>2009-07-25T14:24:25Z</time></trkpt>
<trkpt lat="54.262880" lon="-3.098451"><ele>76</ele><time>2009-07-25T14:24:42Z</time></trkpt>
<trkpt lat="54.264087" lon="-3.096119"><ele>71</ele><time>2009-07-25T14:25:30Z</time></trkpt>
<trkpt lat="54.264770" lon="-3.093235"><ele>65</ele><time>2009-07-25T14:25:53Z</time></trkpt>
<trkpt lat="54.265054" lon="-3.091569"><ele>63</ele><time>2009-07-25T14:26:13Z</time></trkpt>
</trkseg>
</trk>

</gpx>
—————————————————————————————-

P.S. I used this:
http://kongming.net/development/tools/unicode-to-decimal-entity-encoder.php
Which is ace, thank you for providing that.

Advertisements

Leave a Reply

Fill in your details below or click an icon to log in:

WordPress.com Logo

You are commenting using your WordPress.com account. Log Out / Change )

Twitter picture

You are commenting using your Twitter account. Log Out / Change )

Facebook photo

You are commenting using your Facebook account. Log Out / Change )

Google+ photo

You are commenting using your Google+ account. Log Out / Change )

Connecting to %s


%d bloggers like this: